createdAt,value
2017-12-22T00:06:14.024Z,82.03
2017-12-22T00:08:48.639Z,58.73
2017-12-22T00:11:24.615Z,52.03
2017-12-22T00:13:59.311Z,60.40
2017-12-22T00:16:34.581Z,61.93
2017-12-22T00:19:09.808Z,61.17
2017-12-22T00:21:45.033Z,70.73
2017-12-22T00:24:19.749Z,69.77
2017-12-22T00:26:54.642Z,57.17
2017-12-22T00:29:29.317Z,60.33
2017-12-22T00:32:03.925Z,52.17
2017-12-22T00:34:38.907Z,53.20
2017-12-22T00:37:13.414Z,48.00
2017-12-22T00:39:48.658Z,44.70
2017-12-22T00:42:23.417Z,53.77
2017-12-22T00:44:58.366Z,45.77
2017-12-22T00:47:34.500Z,27.97
2017-12-22T00:50:09.288Z,47.93
2017-12-22T00:52:44.448Z,28.47
2017-12-22T00:55:19.842Z,38.27
2017-12-22T00:57:55.143Z,46.97
2017-12-22T01:00:30.282Z,24.80
2017-12-22T01:03:05.132Z,30.13
2017-12-22T01:05:40.120Z,57.23
2017-12-22T01:08:14.549Z,51.33
2017-12-22T01:10:49.623Z,38.57
2017-12-22T01:13:25.464Z,48.77
2017-12-22T01:16:06.316Z,35.73
2017-12-22T01:18:46.803Z,40.10
2017-12-22T01:21:22.062Z,34.20
2017-12-22T01:41:57.168Z,48.47
2017-12-22T01:44:31.974Z,57.97
2017-12-22T01:47:06.650Z,49.20
2017-12-22T01:49:41.340Z,48.50
2017-12-22T01:52:16.292Z,36.77
2017-12-22T01:54:50.812Z,51.03
2017-12-22T01:57:25.730Z,54.23
2017-12-22T02:00:00.586Z,52.03
2017-12-22T02:02:41.300Z,45.87
2017-12-22T02:05:15.888Z,50.93
2017-12-22T02:07:50.784Z,56.30
2017-12-22T02:10:26.011Z,49.43
2017-12-22T02:13:01.263Z,60.73
2017-12-22T02:15:36.945Z,45.43
2017-12-22T02:18:11.404Z,61.83
2017-12-22T02:20:47.254Z,49.77
2017-12-22T02:23:22.286Z,40.97
2017-12-22T02:25:57.625Z,40.60
2017-12-22T02:28:32.099Z,44.87
2017-12-22T02:31:07.122Z,42.37
2017-12-22T02:33:41.944Z,54.00
2017-12-22T02:36:16.555Z,42.77
2017-12-22T02:38:51.438Z,42.67
2017-12-22T02:41:26.393Z,67.57
2017-12-22T02:44:00.835Z,103.03
2017-12-22T02:46:35.207Z,68.57
2017-12-22T02:49:10.208Z,61.37
2017-12-22T02:51:45.442Z,57.03
2017-12-22T02:54:20.455Z,70.97
2017-12-22T02:56:55.479Z,62.00
2017-12-22T02:59:31.021Z,63.03
2017-12-22T03:02:06.893Z,61.60
2017-12-22T03:04:48.269Z,56.23
2017-12-22T03:07:22.867Z,64.03
2017-12-22T03:09:57.644Z,74.77
2017-12-22T03:12:32.484Z,79.70
2017-12-22T03:15:07.764Z,80.33
2017-12-22T03:17:42.609Z,80.90
2017-12-22T03:20:17.617Z,100.30
2017-12-22T03:22:52.739Z,62.47
2017-12-22T03:28:27.686Z,57.50
2017-12-22T03:31:02.624Z,37.07
2017-12-22T03:33:37.448Z,45.20
2017-12-22T03:36:11.765Z,55.73
2017-12-22T03:38:46.312Z,58.00
2017-12-22T03:41:21.166Z,75.23
2017-12-22T03:43:56.232Z,53.17
2017-12-22T03:49:31.627Z,46.23
2017-12-22T03:52:06.227Z,50.30
2017-12-22T03:54:41.137Z,45.43
2017-12-22T03:57:15.832Z,52.87
2017-12-22T03:59:50.454Z,50.97
2017-12-22T04:02:25.207Z,45.50
2017-12-22T04:05:00.505Z,61.53
2017-12-22T04:10:57.124Z,47.33
2017-12-22T04:13:31.505Z,21.80
2017-12-22T04:16:06.330Z,58.73
2017-12-22T04:18:41.486Z,39.00
2017-12-22T04:21:16.462Z,47.67
2017-12-22T04:23:50.970Z,40.83
2017-12-22T04:26:25.534Z,53.03
2017-12-22T04:29:00.660Z,64.83
2017-12-22T04:31:35.858Z,74.57
2017-12-22T04:34:10.486Z,62.43
2017-12-22T04:36:45.637Z,77.20
2017-12-22T04:39:20.226Z,86.40
2017-12-22T04:41:54.876Z,104.50
2017-12-22T04:44:29.600Z,95.50
2017-12-22T04:47:04.542Z,114.73
2017-12-22T05:13:39.229Z,173.20
2017-12-22T05:16:14.117Z,221.47
2017-12-22T05:18:48.968Z,194.37
2017-12-22T05:21:23.747Z,186.03
2017-12-22T05:23:58.681Z,136.23
2017-12-22T05:26:33.513Z,147.17
2017-12-22T05:29:08.372Z,174.50
2017-12-22T05:31:43.327Z,177.13
2017-12-22T05:34:18.303Z,218.10
2017-12-22T05:36:53.078Z,222.77
2017-12-22T05:39:29.155Z,236.47
2017-12-22T05:42:04.356Z,201.60
2017-12-22T05:44:39.523Z,263.60
2017-12-22T05:47:14.915Z,263.50
2017-12-22T05:49:49.368Z,260.50
2017-12-22T06:07:22.704Z,311.30
2017-12-22T06:09:57.396Z,358.77
2017-12-22T06:12:32.020Z,382.60
2017-12-22T06:15:06.979Z,303.03
2017-12-22T06:17:41.876Z,320.80
2017-12-22T06:20:16.638Z,298.40
2017-12-22T06:22:51.568Z,341.53
2017-12-22T06:34:46.299Z,278.93
2017-12-22T06:37:21.583Z,258.77
2017-12-22T06:39:56.554Z,282.93
2017-12-22T06:42:31.604Z,243.53
2017-12-22T06:45:06.782Z,266.63
2017-12-22T06:47:41.711Z,238.27
2017-12-22T06:50:16.598Z,225.87
2017-12-22T06:52:51.810Z,253.80
2017-12-22T07:07:27.202Z,163.13
2017-12-22T07:10:01.844Z,224.63
2017-12-22T07:12:37.622Z,243.13
2017-12-22T07:15:12.926Z,199.50
2017-12-22T07:17:48.036Z,197.23
2017-12-22T07:20:22.839Z,152.13
2017-12-22T07:22:57.670Z,192.53
2017-12-22T07:25:32.567Z,183.50
2017-12-22T07:37:09.076Z,125.03
2017-12-22T07:39:44.083Z,136.10
2017-12-22T07:42:18.973Z,206.67
2017-12-22T07:44:54.294Z,187.00
2017-12-22T07:47:28.399Z,198.57
2017-12-22T07:50:03.478Z,169.90
2017-12-22T07:52:38.095Z,168.50
2017-12-22T07:55:12.849Z,141.77
2017-12-22T08:03:47.831Z,180.53
2017-12-22T08:06:23.035Z,195.13
2017-12-22T08:08:58.262Z,174.50
2017-12-22T08:11:33.367Z,274.70
2017-12-22T08:14:09.009Z,162.47
2017-12-22T08:16:44.939Z,202.10
2017-12-22T08:19:20.016Z,571.07
2017-12-22T08:21:55.060Z,171.03
2017-12-22T08:33:29.986Z,186.63
2017-12-22T08:36:05.170Z,164.30
2017-12-22T08:38:41.070Z,193.77
2017-12-22T08:41:16.201Z,209.60
2017-12-22T08:43:51.382Z,272.17
2017-12-22T08:46:25.872Z,204.90
2017-12-22T08:49:00.832Z,194.53
2017-12-22T09:00:58.214Z,243.83
2017-12-22T09:03:33.434Z,176.83
2017-12-22T09:06:08.763Z,171.03
2017-12-22T09:08:52.589Z,124.57
2017-12-22T09:11:27.610Z,133.27
2017-12-22T09:14:02.788Z,115.90
2017-12-22T09:16:38.083Z,103.17
2017-12-22T09:19:14.023Z,118.20
2017-12-22T09:21:54.858Z,147.17
2017-12-22T09:24:29.377Z,113.57
2017-12-22T09:27:04.998Z,133.30
2017-12-22T09:29:39.485Z,118.50
2017-12-22T09:32:14.256Z,86.90
2017-12-22T09:34:49.487Z,72.20
2017-12-22T09:37:23.915Z,80.77
2017-12-22T09:39:59.659Z,83.00
2017-12-22T09:42:34.668Z,58.80
2017-12-22T09:45:10.229Z,50.20
2017-12-22T09:47:45.492Z,30.97
2017-12-22T09:50:20.522Z,36.30
2017-12-22T09:52:54.946Z,29.00
2017-12-22T09:55:30.020Z,29.23
2017-12-22T09:58:04.275Z,34.37
2017-12-22T10:00:39.228Z,35.50
2017-12-22T10:06:33.956Z,40.53
2017-12-22T10:09:09.434Z,42.83
2017-12-22T10:11:44.174Z,39.43
2017-12-22T10:14:19.820Z,43.93
2017-12-22T10:16:54.755Z,44.53
2017-12-22T10:19:29.741Z,48.93
2017-12-22T10:22:05.004Z,30.87
2017-12-22T10:24:40.267Z,37.53
2017-12-22T10:30:38.376Z,34.30
2017-12-22T10:33:13.568Z,26.37
2017-12-22T10:35:47.945Z,25.70
2017-12-22T10:38:22.948Z,29.27
2017-12-22T10:40:57.866Z,26.37
2017-12-22T10:43:32.730Z,29.90
2017-12-22T10:46:07.757Z,29.97
2017-12-22T10:48:42.915Z,26.57
2017-12-22T10:51:18.161Z,35.13
2017-12-22T10:53:53.050Z,28.10
2017-12-22T10:56:27.845Z,29.83
2017-12-22T10:59:02.508Z,28.50
2017-12-22T11:01:37.388Z,25.57
2017-12-22T11:04:12.758Z,24.30
2017-12-22T11:06:47.839Z,27.03
2017-12-22T11:09:22.446Z,24.40
2017-12-22T11:32:58.957Z,21.20
2017-12-22T11:35:33.666Z,21.50
2017-12-22T11:38:08.587Z,20.93
2017-12-22T11:40:43.623Z,18.33
2017-12-22T11:43:18.576Z,18.27
2017-12-22T11:45:53.775Z,20.67
2017-12-22T11:48:28.438Z,20.83
2017-12-22T11:51:03.325Z,20.53
2017-12-22T11:59:40.629Z,21.43
2017-12-22T12:02:15.057Z,21.23
2017-12-22T12:04:49.753Z,20.03
2017-12-22T12:07:24.578Z,19.37
2017-12-22T12:09:59.392Z,19.00
2017-12-22T12:12:34.329Z,19.17
2017-12-22T12:15:09.961Z,17.97
2017-12-22T12:17:45.887Z,19.23
2017-12-22T12:20:26.657Z,19.40
2017-12-22T12:23:01.107Z,19.37
2017-12-22T12:25:35.930Z,20.17
2017-12-22T12:28:10.856Z,19.47
2017-12-22T12:30:45.813Z,16.17
2017-12-22T12:33:20.805Z,24.17
2017-12-22T12:35:55.231Z,20.57
2017-12-22T12:38:30.290Z,17.23
2017-12-22T12:44:04.422Z,21.73
2017-12-22T12:46:39.160Z,20.70
2017-12-22T12:49:14.515Z,20.60
2017-12-22T12:51:49.650Z,18.27
2017-12-22T12:54:24.229Z,16.60
2017-12-22T12:56:59.138Z,17.93
2017-12-22T12:59:33.873Z,19.57
2017-12-22T13:05:29.442Z,17.07
2017-12-22T13:08:03.825Z,18.27
2017-12-22T13:10:38.572Z,16.90
2017-12-22T13:13:13.581Z,15.47
2017-12-22T13:15:48.287Z,18.50
2017-12-22T13:18:23.024Z,17.13
2017-12-22T13:20:57.935Z,16.53
2017-12-22T13:23:32.729Z,21.97
2017-12-22T13:26:07.402Z,15.87
2017-12-22T13:28:42.455Z,21.70
2017-12-22T13:31:18.115Z,21.73
2017-12-22T13:33:53.062Z,21.47
2017-12-22T13:36:27.774Z,17.90
2017-12-22T13:39:02.185Z,19.43
2017-12-22T13:41:37.128Z,16.37
2017-12-22T13:47:10.945Z,18.33
2017-12-22T13:49:46.452Z,16.97
2017-12-22T13:52:21.630Z,18.77
2017-12-22T13:54:56.481Z,18.67
2017-12-22T13:57:31.366Z,18.57
2017-12-22T14:00:06.337Z,18.73
2017-12-22T14:02:41.296Z,20.03
2017-12-22T14:08:15.890Z,23.60
2017-12-22T14:10:50.945Z,19.97
2017-12-22T14:13:25.966Z,23.93
2017-12-22T14:16:00.945Z,27.37
2017-12-22T14:18:35.726Z,26.87
2017-12-22T14:21:10.663Z,26.27
2017-12-22T14:23:45.410Z,24.70
2017-12-22T14:26:21.081Z,27.33
2017-12-22T14:28:55.864Z,27.57
2017-12-22T14:31:30.802Z,26.80
2017-12-22T14:34:06.131Z,32.33
2017-12-22T14:36:41.084Z,31.27
2017-12-22T14:39:16.249Z,29.57
2017-12-22T14:41:51.104Z,29.57
2017-12-22T14:44:25.988Z,30.40
2017-12-22T14:59:01.028Z,29.53
2017-12-22T15:01:35.817Z,30.33
2017-12-22T15:04:10.711Z,31.57
2017-12-22T15:06:45.703Z,29.37
2017-12-22T15:09:20.603Z,30.97
2017-12-22T15:11:55.569Z,32.53
2017-12-22T15:14:30.714Z,31.53
2017-12-22T15:17:06.002Z,30.10
2017-12-22T15:35:02.461Z,61.20
2017-12-22T15:37:37.680Z,68.67
2017-12-22T15:40:13.272Z,82.83
2017-12-22T15:42:48.464Z,413.43
2017-12-22T15:45:23.393Z,65.77
2017-12-22T15:47:58.148Z,178.80
2017-12-22T15:50:32.619Z,617.17
2017-12-22T15:53:07.820Z,509.67
2017-12-22T15:58:43.427Z,154.77
2017-12-22T16:01:18.444Z,303.77
2017-12-22T16:03:53.781Z,127.73
2017-12-22T16:06:29.415Z,158.67
2017-12-22T16:09:03.390Z,82.90
2017-12-22T16:11:39.490Z,68.33
2017-12-22T16:14:14.123Z,80.43
2017-12-22T16:16:48.589Z,66.17
2017-12-22T16:19:23.169Z,53.97
2017-12-22T16:21:58.208Z,58.60
2017-12-22T16:24:33.398Z,54.10
2017-12-22T16:27:08.663Z,147.90
2017-12-22T16:29:43.536Z,56.60
2017-12-22T16:32:19.243Z,82.63
2017-12-22T16:34:53.937Z,73.57
2017-12-22T16:37:28.424Z,47.43
2017-12-22T16:40:03.368Z,60.50
2017-12-22T16:42:39.152Z,55.00
2017-12-22T16:45:13.565Z,55.53
2017-12-22T16:47:48.220Z,79.30
2017-12-22T16:50:23.185Z,99.93
2017-12-22T16:52:57.496Z,78.90
2017-12-22T16:55:32.525Z,103.60
2017-12-22T17:01:06.982Z,76.77
2017-12-22T17:03:42.295Z,85.87
2017-12-22T17:06:17.065Z,85.13
2017-12-22T17:08:51.750Z,117.93
2017-12-22T17:11:26.709Z,67.83
2017-12-22T17:14:01.506Z,75.30
2017-12-22T17:16:36.463Z,86.93
2017-12-22T17:19:11.324Z,85.27
2017-12-22T17:21:46.031Z,84.87
2017-12-22T17:24:20.710Z,88.87
2017-12-22T17:26:55.757Z,76.77
2017-12-22T17:29:30.615Z,76.53
2017-12-22T17:32:05.807Z,78.20
2017-12-22T17:34:40.929Z,82.90
2017-12-22T17:37:15.947Z,72.10
2017-12-22T17:39:57.051Z,79.83
2017-12-22T17:42:31.625Z,88.73
2017-12-22T17:45:06.952Z,106.47
2017-12-22T17:47:41.643Z,102.90
2017-12-22T17:50:16.795Z,127.97
2017-12-22T17:52:51.715Z,127.80
2017-12-22T17:55:26.744Z,107.93
2017-12-22T17:58:01.384Z,127.30
2017-12-22T18:03:35.685Z,146.87
2017-12-22T18:06:11.170Z,153.27
2017-12-22T18:08:45.298Z,135.00
2017-12-22T18:11:20.910Z,114.07
2017-12-22T18:13:55.937Z,132.80
2017-12-22T18:16:30.334Z,136.33
2017-12-22T18:19:05.551Z,149.70
2017-12-22T18:21:40.103Z,146.87
2017-12-22T18:24:17.496Z,156.63
2017-12-22T18:26:52.449Z,170.20
2017-12-22T18:29:27.375Z,163.43
2017-12-22T18:32:01.836Z,208.60
2017-12-22T18:34:37.077Z,146.87
2017-12-22T18:37:12.204Z,180.43
2017-12-22T18:39:47.219Z,132.30
2017-12-22T19:03:30.377Z,105.60
2017-12-22T19:06:07.142Z,94.13
2017-12-22T19:08:42.143Z,120.77
2017-12-22T19:11:17.246Z,152.07
2017-12-22T19:13:51.980Z,137.53
2017-12-22T19:16:26.869Z,100.10
2017-12-22T19:19:01.705Z,81.73
2017-12-22T19:21:36.590Z,108.43
2017-12-22T19:42:12.148Z,52.77
2017-12-22T19:44:46.996Z,56.67
2017-12-22T19:47:21.801Z,52.43
2017-12-22T19:49:56.840Z,50.70
2017-12-22T19:52:32.502Z,36.23
2017-12-22T19:55:06.873Z,32.90
2017-12-22T19:57:42.933Z,33.33
2017-12-22T20:00:18.129Z,44.90
2017-12-22T20:11:59.559Z,90.77
2017-12-22T20:14:34.842Z,93.10
2017-12-22T20:17:09.755Z,86.27
2017-12-22T20:19:44.415Z,77.90
2017-12-22T20:22:19.420Z,79.03
2017-12-22T20:24:54.337Z,65.53
2017-12-22T20:27:30.215Z,57.50
2017-12-22T20:30:05.157Z,57.37
2017-12-22T20:35:39.594Z,50.37
2017-12-22T20:38:14.232Z,55.53
2017-12-22T20:40:49.128Z,53.60
2017-12-22T20:43:23.976Z,61.07
2017-12-22T20:45:58.776Z,49.53
2017-12-22T20:48:33.709Z,53.13
2017-12-22T20:51:08.520Z,55.20
2017-12-22T21:17:42.814Z,60.17
2017-12-22T21:20:17.726Z,69.23
2017-12-22T21:22:52.610Z,72.87
2017-12-22T21:25:27.705Z,75.23
2017-12-22T21:28:03.436Z,75.47
2017-12-22T21:30:38.710Z,83.83
2017-12-22T21:33:13.715Z,85.40
2017-12-22T21:35:48.774Z,91.53
2017-12-22T21:41:47.102Z,103.67
2017-12-22T21:44:21.613Z,107.13
2017-12-22T21:46:56.039Z,108.67
2017-12-22T21:49:30.618Z,98.60
2017-12-22T21:52:05.839Z,100.90
2017-12-22T21:54:40.690Z,95.27
2017-12-22T21:57:16.004Z,92.47
2017-12-22T21:59:50.444Z,92.67
2017-12-22T22:02:32.023Z,103.67
2017-12-22T22:05:06.563Z,99.27
2017-12-22T22:07:41.392Z,81.27
2017-12-22T22:10:16.221Z,76.47
2017-12-22T22:12:50.917Z,69.90
2017-12-22T22:15:25.905Z,68.37
2017-12-22T22:18:00.812Z,53.23
2017-12-22T22:20:35.938Z,59.17
2017-12-22T22:41:10.394Z,37.90
2017-12-22T22:43:45.080Z,39.67
2017-12-22T22:46:20.678Z,41.00
2017-12-22T22:48:55.163Z,35.70
2017-12-22T22:51:30.148Z,38.70
2017-12-22T22:54:05.002Z,41.50
2017-12-22T22:56:40.148Z,46.03
2017-12-22T22:59:15.108Z,48.33
2017-12-22T23:05:09.048Z,48.70
2017-12-22T23:07:44.306Z,55.67
2017-12-22T23:10:19.582Z,53.43
2017-12-22T23:12:54.169Z,53.23
2017-12-22T23:15:28.930Z,57.33
2017-12-22T23:18:03.996Z,58.47
2017-12-22T23:20:38.477Z,50.70
2017-12-22T23:23:13.744Z,55.07
2017-12-22T23:31:55.335Z,48.90
2017-12-22T23:34:30.282Z,52.57
2017-12-22T23:37:05.496Z,51.17
2017-12-22T23:39:41.473Z,53.20
2017-12-22T23:42:16.787Z,55.40
2017-12-22T23:44:51.854Z,48.07
2017-12-22T23:47:26.728Z,45.47
